Time;durP1;ratioP1;P1;durP2;ratioP2;P2;SDS_P1;SDS_P2;PMS_P1;PMS_P2;Temp;Humidity;BMP_temperature;BMP_pressure;BME280_temperature;BME280_humidity;BME280_pressure;Samples;Min_cycle;Max_cycle;Signal;HPM_P1;HPM_P2
2023/10/20 00:02:28;;;;;;;84.65;22.73;;;9.00;99.90;;;;;;4952089;29;20051;-86
2023/10/20 00:04:54;;;;;;;94.63;23.58;;;7.50;99.90;;;;;;4920100;29;20054;-85
2023/10/20 00:07:37;;;;;;;90.63;23.45;;;8.10;99.90;;;;;;4920837;29;20142;-85
2023/10/20 00:10:05;;;;;;;92.75;23.65;;;7.50;99.90;;;;;;4952433;29;20048;-85
2023/10/20 00:12:31;;;;;;;84.25;23.35;;;7.90;99.90;;;;;;4919379;29;20074;-85
2023/10/20 00:15:14;;;;;;;85.28;22.20;;;8.90;99.90;;;;;;4920260;29;20399;-85
2023/10/20 00:17:41;;;;;;;84.18;22.75;;;9.20;99.90;;;;;;4919626;29;20403;-85
2023/10/20 00:20:19;;;;;;;82.50;22.77;;;9.10;99.90;;;;;;4919963;29;20054;-85
2023/10/20 00:22:45;;;;;;;100.90;23.77;;;8.00;99.90;;;;;;4919889;29;20048;-85
2023/10/20 00:25:13;;;;;;;81.10;22.02;;;9.30;99.90;;;;;;4919769;29;20031;-86
2023/10/20 00:27:51;;;;;;;93.10;22.60;;;8.50;99.90;;;;;;4952010;29;20047;-85
2023/10/20 00:30:17;;;;;;;79.18;23.10;;;9.20;99.90;;;;;;4920371;29;20107;-85
2023/10/20 00:32:45;;;;;;;87.25;23.50;;;7.90;99.90;;;;;;4919504;29;20048;-85
2023/10/20 00:35:13;;;;;;;92.70;22.30;;;7.90;99.90;;;;;;4920077;29;20455;-85
2023/10/20 00:37:39;;;;;;;85.50;22.75;;;9.00;99.90;;;;;;4919878;29;20058;-85
2023/10/20 00:40:09;;;;;;;95.18;23.52;;;7.80;99.90;;;;;;4919792;29;20059;-85
2023/10/20 00:42:35;;;;;;;92.25;23.50;;;7.90;99.90;;;;;;4920224;29;20519;-86
2023/10/20 00:45:13;;;;;;;88.07;23.90;;;7.90;99.90;;;;;;4920063;29;20039;-85
2023/10/20 00:47:39;;;;;;;90.38;23.15;;;7.90;99.90;;;;;;4919396;29;20415;-85
2023/10/20 00:50:11;;;;;;;85.75;23.23;;;7.60;99.90;;;;;;4951830;29;20104;-85
2023/10/20 00:52:50;;;;;;;89.38;22.35;;;7.90;99.90;;;;;;4952078;29;20054;-86
2023/10/20 00:55:15;;;;;;;108.20;23.13;;;7.70;99.90;;;;;;4950404;29;20054;-85
2023/10/20 00:57:45;;;;;;;92.32;22.95;;;8.90;99.90;;;;;;4954884;23;20059;-85
2023/10/20 01:00:13;;;;;;;98.80;23.92;;;7.90;99.90;;;;;;4900407;29;20052;-85
2023/10/20 01:02:40;;;;;;;99.50;23.10;;;7.80;99.90;;;;;;4901346;29;20079;-85
2023/10/20 01:05:06;;;;;;;102.43;22.92;;;7.90;99.90;;;;;;4900437;29;20131;-85
2023/10/20 01:07:32;;;;;;;108.47;23.17;;;7.80;99.90;;;;;;4900379;29;20044;-85
2023/10/20 01:10:14;;;;;;;111.00;23.92;;;7.80;99.90;;;;;;4900768;29;20048;-85
2023/10/20 01:12:40;;;;;;;98.93;23.38;;;8.00;99.90;;;;;;4931328;29;20051;-85
2023/10/20 01:15:09;;;;;;;79.00;21.67;;;8.60;99.90;;;;;;4900676;29;20370;-86
2023/10/20 01:17:35;;;;;;;96.15;23.52;;;7.80;99.90;;;;;;4917905;29;20080;-85
2023/10/20 01:20:05;;;;;;;90.63;21.92;;;8.80;99.90;;;;;;4900870;29;20056;-85
2023/10/20 01:22:32;;;;;;;85.13;22.08;;;7.80;99.90;;;;;;4899081;29;20400;-84
2023/10/20 01:24:58;;;;;;;101.50;23.50;;;8.70;99.90;;;;;;4932681;29;20044;-85
2023/10/20 01:27:24;;;;;;;94.65;23.10;;;8.90;99.90;;;;;;4900545;29;20115;-85
2023/10/20 01:30:05;;;;;;;90.47;23.20;;;7.80;99.90;;;;;;4900008;29;20063;-85
2023/10/20 01:32:31;;;;;;;89.07;22.88;;;7.60;99.90;;;;;;4900569;29;20051;-85
2023/10/20 01:35:09;;;;;;;111.28;24.73;;;9.30;99.90;;;;;;4901118;29;20117;-85
2023/10/20 01:37:35;;;;;;;106.68;22.98;;;7.60;99.90;;;;;;4916369;29;20392;-85
2023/10/20 01:40:12;;;;;;;93.00;23.30;;;7.50;99.90;;;;;;4917306;29;20135;-85
2023/10/20 01:42:38;;;;;;;86.85;22.50;;;7.70;99.90;;;;;;4915215;29;20488;-85
2023/10/20 01:45:05;;;;;;;90.70;24.88;;;8.20;99.90;;;;;;4900643;29;20044;-85
2023/10/20 01:47:46;;;;;;;91.85;22.90;;;7.70;99.90;;;;;;4917027;29;20055;-85
2023/10/20 01:50:12;;;;;;;85.22;22.60;;;7.70;99.90;;;;;;4898253;29;20060;-85
2023/10/20 01:52:53;;;;;;;92.47;22.40;;;7.60;99.90;;;;;;4899867;29;20047;-84
2023/10/20 01:55:19;;;;;;;107.07;23.65;;;7.00;99.90;;;;;;4899716;29;20100;-84
2023/10/20 01:57:44;;;;;;;110.95;25.42;;;9.00;99.90;;;;;;4897513;29;20063;-85
2023/10/20 02:00:14;;;;;;;88.50;23.40;;;8.10;99.90;;;;;;4898083;29;20113;-84
2023/10/20 02:02:40;;;;;;;106.50;24.27;;;7.70;99.90;;;;;;4881162;29;20528;-85
2023/10/20 02:05:13;;;;;;;83.88;22.75;;;7.50;99.90;;;;;;4911809;29;20113;-85
2023/10/20 02:07:39;;;;;;;82.95;22.38;;;7.30;99.90;;;;;;4881313;29;20091;-85
2023/10/20 02:10:19;;;;;;;81.45;22.65;;;7.50;99.90;;;;;;4898069;29;20076;-83
2023/10/20 02:12:45;;;;;;;88.80;23.83;;;8.90;99.90;;;;;;4880275;29;20048;-85
2023/10/20 02:15:11;;;;;;;98.30;23.85;;;8.30;99.90;;;;;;4880996;29;20136;-85
2023/10/20 02:17:52;;;;;;;92.63;23.92;;;8.70;99.90;;;;;;4880401;29;20066;-85
2023/10/20 02:20:20;;;;;;;77.60;23.63;;;8.20;99.90;;;;;;4887965;24;20112;-85
2023/10/20 02:22:50;;;;;;;87.00;23.88;;;7.70;99.90;;;;;;4878720;29;20048;-85
2023/10/20 02:25:20;;;;;;;81.07;22.80;;;8.60;99.90;;;;;;4873295;29;20059;-85
2023/10/20 02:27:47;;;;;;;75.15;22.92;;;7.70;99.90;;;;;;4878020;29;20056;-85
2023/10/20 02:30:14;;;;;;;86.88;23.27;;;7.70;99.90;;;;;;4895154;29;20049;-84
2023/10/20 02:32:40;;;;;;;101.45;24.45;;;7.70;99.90;;;;;;4911559;29;20053;-85
2023/10/20 02:35:07;;;;;;;92.32;24.08;;;7.70;99.90;;;;;;4880571;29;20037;-85
2023/10/20 02:37:33;;;;;;;77.53;22.60;;;9.20;99.90;;;;;;4880110;29;20079;-85
2023/10/20 02:40:04;;;;;;;74.25;22.90;;;7.70;99.90;;;;;;4892013;29;20528;-85
2023/10/20 02:42:33;;;;;;;83.15;22.80;;;7.70;99.90;;;;;;4861614;29;20048;-85
2023/10/20 02:44:59;;;;;;;80.28;22.67;;;7.70;99.90;;;;;;4894624;29;20051;-85
2023/10/20 02:47:28;;;;;;;73.93;22.88;;;7.60;99.90;;;;;;4880206;29;20136;-85
2023/10/20 02:50:14;;;;;;;96.57;24.42;;;7.70;99.90;;;;;;4877903;29;20053;-85
2023/10/20 02:53:25;;;;;;;78.93;22.77;;;7.60;99.90;;;;;;4893144;29;20063;-85
2023/10/20 02:55:57;;;;;;;85.72;23.50;;;7.20;99.90;;;;;;4876551;29;20064;-85
2023/10/20 02:58:43;;;;;;;68.35;21.33;;;7.60;99.90;;;;;;4863005;29;20481;-85
2023/10/20 03:01:09;;;;;;;79.50;21.95;;;8.60;99.90;;;;;;4895746;29;20061;-85
2023/10/20 03:03:37;;;;;;;83.80;23.75;;;9.00;99.90;;;;;;4880835;29;20400;-85
2023/10/20 03:06:09;;;;;;;71.63;22.40;;;9.20;99.90;;;;;;4879662;29;20135;-85
2023/10/20 03:08:36;;;;;;;79.50;22.10;;;7.70;99.90;;;;;;4879426;29;20589;-82
2023/10/20 03:11:20;;;;;;;69.32;22.73;;;7.60;99.90;;;;;;4879812;29;20508;-84
2023/10/20 03:13:46;;;;;;;70.10;21.35;;;7.30;99.90;;;;;;4879849;29;20052;-85
2023/10/20 03:16:12;;;;;;;73.35;21.05;;;7.70;99.90;;;;;;4879979;29;20049;-84
2023/10/20 03:18:55;;;;;;;67.93;21.50;;;7.70;99.90;;;;;;4880824;29;20048;-85
2023/10/20 03:21:21;;;;;;;61.28;21.40;;;7.70;99.90;;;;;;4879121;29;20061;-85
2023/10/20 03:23:47;;;;;;;61.07;21.77;;;7.70;99.90;;;;;;4880304;29;20052;-84
2023/10/20 03:26:13;;;;;;;67.27;21.43;;;7.70;99.90;;;;;;4879747;29;20100;-85
2023/10/20 03:28:42;;;;;;;64.60;20.90;;;7.60;99.90;;;;;;4878861;29;20408;-85
2023/10/20 03:31:08;;;;;;;62.80;21.17;;;8.00;99.90;;;;;;4898261;23;20135;-85
2023/10/20 03:33:40;;;;;;;62.90;21.07;;;7.70;99.90;;;;;;4917918;29;20415;-86
2023/10/20 03:36:13;;;;;;;55.50;18.83;;;7.40;99.90;;;;;;4918317;29;20103;-86
2023/10/20 03:38:39;;;;;;;71.43;22.20;;;6.80;99.90;;;;;;4921456;29;20052;-85
2023/10/20 03:41:09;;;;;;;57.08;20.55;;;7.30;99.90;;;;;;4921231;29;20056;-85
2023/10/20 03:43:50;;;;;;;58.35;19.95;;;8.50;99.90;;;;;;4919827;29;20107;-85
2023/10/20 03:46:56;;;;;;;69.25;20.75;;;9.20;99.90;;;;;;4920691;29;20043;-85
2023/10/20 03:49:22;;;;;;;63.70;20.10;;;7.60;99.90;;;;;;4920283;29;20058;-85
2023/10/20 03:51:50;;;;;;;77.45;22.50;;;7.60;99.90;;;;;;4921425;29;20051;-85
2023/10/20 03:57:08;;;;;;;58.17;20.55;;;7.90;99.90;;;;;;4936018;29;20060;-85
2023/10/20 03:59:34;;;;;;;61.87;20.60;;;7.40;99.90;;;;;;4919216;29;20051;-85
2023/10/20 04:02:01;;;;;;;62.43;21.50;;;6.80;99.90;;;;;;4919222;29;20047;-83
2023/10/20 04:04:30;;;;;;;69.33;21.77;;;7.60;99.90;;;;;;4918920;29;20052;-85
2023/10/20 04:07:08;;;;;;;62.90;20.37;;;7.60;99.90;;;;;;4917650;29;20063;-85
2023/10/20 04:09:33;;;;;;;63.63;20.60;;;7.50;99.90;;;;;;4920788;29;20047;-85
2023/10/20 04:12:16;;;;;;;66.77;21.50;;;7.60;99.90;;;;;;4917173;29;20067;-85
2023/10/20 04:14:54;;;;;;;61.53;19.63;;;9.30;99.90;;;;;;4919722;29;20099;-86
2023/10/20 04:17:19;;;;;;;63.22;21.25;;;7.10;99.90;;;;;;4920330;29;20135;-85
2023/10/20 04:19:52;;;;;;;65.22;21.40;;;7.60;99.90;;;;;;4920296;29;20135;-85
2023/10/20 04:22:29;;;;;;;61.97;19.77;;;8.20;99.90;;;;;;4919149;29;20168;-85
2023/10/20 04:24:55;;;;;;;73.53;22.10;;;7.60;99.90;;;;;;4918283;29;20040;-84
2023/10/20 04:27:40;;;;;;;61.53;21.48;;;8.50;99.90;;;;;;4919955;29;20040;-85
2023/10/20 04:49:26;;;;;;;60.97;21.30;;;7.70;99.90;;;;;;4936151;29;20377;-85
2023/10/20 04:52:05;;;;;;;46.38;19.70;;;7.60;99.90;;;;;;4920714;29;20121;-86
2023/10/20 04:54:45;;;;;;;52.07;19.77;;;7.60;99.90;;;;;;4919174;29;20142;-85
2023/10/20 04:57:49;;;;;;;46.53;18.60;;;7.80;99.90;;;;;;4919703;29;20047;-85
2023/10/20 05:07:52;;;;;;;49.60;18.87;;;7.50;99.90;;;;;;4951085;29;20134;-85
2023/10/20 05:10:24;;;;;;;47.65;17.42;;;7.50;99.90;;;;;;4919747;29;20152;-85
2023/10/20 05:13:19;;;;;;;51.80;18.70;;;7.50;99.90;;;;;;4921485;29;20563;-85
2023/10/20 05:16:00;;;;;;;48.63;18.30;;;7.40;99.90;;;;;;4919492;29;20082;-85
2023/10/20 05:18:25;;;;;;;48.10;18.57;;;7.50;99.90;;;;;;4951105;29;20047;-85
2023/10/20 05:20:51;;;;;;;43.10;18.15;;;8.60;99.90;;;;;;4917972;29;20107;-85
2023/10/20 05:23:17;;;;;;;46.35;18.05;;;7.60;99.90;;;;;;4935413;29;20404;-85
2023/10/20 05:25:47;;;;;;;46.30;17.77;;;7.40;99.90;;;;;;4919510;29;20419;-84
2023/10/20 05:28:39;;;;;;;41.08;17.77;;;7.50;99.90;;;;;;4918255;29;20447;-85
2023/10/20 05:31:14;;;;;;;40.22;16.92;;;9.10;99.90;;;;;;4918023;29;20040;-85
2023/10/20 05:33:40;;;;;;;41.88;16.20;;;7.40;99.90;;;;;;4900772;29;20474;-85
2023/10/20 05:36:05;;;;;;;39.38;16.20;;;9.00;99.90;;;;;;4899798;29;20131;-85
2023/10/20 05:38:49;;;;;;;39.47;15.90;;;7.40;99.90;;;;;;4899466;29;20115;-85
2023/10/20 05:41:41;;;;;;;34.72;16.38;;;7.20;99.90;;;;;;4899535;29;20062;-85
2023/10/20 05:44:32;;;;;;;35.30;15.30;;;7.20;99.90;;;;;;4900502;29;20075;-85
2023/10/20 05:46:57;;;;;;;40.00;16.35;;;7.20;99.90;;;;;;4900788;29;20044;-86
2023/10/20 05:49:29;;;;;;;38.65;16.80;;;7.20;99.90;;;;;;4898818;29;20200;-85
2023/10/20 05:52:13;;;;;;;36.07;15.70;;;7.30;99.90;;;;;;4917242;29;20032;-83
2023/10/20 05:54:39;;;;;;;38.38;16.05;;;9.00;99.90;;;;;;4900182;29;20113;-82
2023/10/20 05:57:04;;;;;;;39.42;15.50;;;8.90;99.90;;;;;;4899069;29;20450;-82
2023/10/20 05:59:33;;;;;;;32.47;15.45;;;7.30;99.90;;;;;;4916242;29;20055;-82
2023/10/20 06:02:36;;;;;;;33.97;14.23;;;6.70;99.90;;;;;;4899599;29;20059;-83
2023/10/20 06:05:02;;;;;;;31.60;13.10;;;7.50;99.90;;;;;;4899277;29;20054;-81
2023/10/20 06:07:44;;;;;;;29.03;14.43;;;7.30;99.90;;;;;;4915870;29;20056;-81
2023/10/20 06:10:13;;;;;;;34.67;14.05;;;6.70;99.90;;;;;;4915710;29;20046;-82
2023/10/20 06:12:57;;;;;;;31.07;14.57;;;7.20;99.90;;;;;;4899712;29;20135;-82
2023/10/20 06:15:23;;;;;;;;;;;7.40;99.90;;;;;;4916687;29;20127;-82
2023/10/20 06:17:50;;;;;;;31.23;13.30;;;7.60;99.90;;;;;;4898998;29;19977;-82
2023/10/20 06:20:39;;;;;;;30.00;13.68;;;7.30;99.90;;;;;;4898571;29;20048;-84
2023/10/20 06:23:05;;;;;;;27.33;13.25;;;7.40;99.90;;;;;;4899533;29;20052;-82
2023/10/20 06:25:35;;;;;;;27.30;12.38;;;7.30;99.90;;;;;;4898551;29;20055;-82
2023/10/20 06:28:01;;;;;;;28.33;12.73;;;7.30;99.90;;;;;;4899755;29;20048;-83
2023/10/20 06:30:26;;;;;;;29.73;13.50;;;7.30;99.90;;;;;;4899775;29;20048;-82
2023/10/20 06:35:44;;;;;;;24.73;11.98;;;7.30;99.90;;;;;;4934256;29;20420;-82
2023/10/20 06:40:35;;;;;;;26.25;12.10;;;7.40;99.90;;;;;;4918164;29;20055;-84
2023/10/20 06:43:01;;;;;;;25.65;12.25;;;7.90;99.90;;;;;;4918297;29;20048;-84
2023/10/20 06:45:26;;;;;;;25.42;10.98;;;8.60;99.90;;;;;;4917361;29;20055;-84
2023/10/20 06:47:57;;;;;;;24.50;12.02;;;7.40;99.90;;;;;;4935519;29;20055;-84
2023/10/20 06:50:23;;;;;;;26.17;12.10;;;8.60;99.90;;;;;;4918232;29;20051;-84
2023/10/20 06:52:48;;;;;;;22.65;11.85;;;7.40;99.90;;;;;;4917849;29;20047;-84
2023/10/20 06:55:16;;;;;;;22.77;11.82;;;8.50;99.90;;;;;;4934960;29;20048;-84
2023/10/20 06:57:42;;;;;;;23.63;11.43;;;7.40;99.90;;;;;;4918521;29;20549;-84
2023/10/20 07:00:16;;;;;;;25.48;13.48;;;7.40;99.90;;;;;;4917207;29;20043;-84
2023/10/20 07:02:42;;;;;;;;;;;7.30;99.90;;;;;;4916941;29;20048;-83
2023/10/20 07:05:07;;;;;;;20.92;10.88;;;7.40;99.90;;;;;;4918016;29;19929;-83
2023/10/20 07:07:33;;;;;;;24.08;11.90;;;7.30;99.90;;;;;;4917603;29;20095;-83
2023/10/20 07:10:00;;;;;;;24.27;11.40;;;7.40;99.90;;;;;;4918453;29;20051;-83
2023/10/20 07:12:27;;;;;;;27.00;12.55;;;7.50;99.90;;;;;;4921621;29;20547;-83
2023/10/20 07:14:52;;;;;;;22.90;11.90;;;7.40;99.90;;;;;;4920714;29;20058;-82
2023/10/20 07:17:18;;;;;;;26.75;12.43;;;8.30;99.90;;;;;;4921764;29;20399;-83
2023/10/20 07:19:44;;;;;;;26.90;12.73;;;7.50;99.90;;;;;;4937679;29;20137;-82
2023/10/20 07:22:15;;;;;;;25.98;12.73;;;7.30;99.90;;;;;;4937657;29;20047;-84
2023/10/20 07:24:42;;;;;;;24.85;11.95;;;7.40;99.90;;;;;;4902633;29;20127;-83
2023/10/20 07:27:26;;;;;;;24.90;12.85;;;7.10;99.90;;;;;;4902306;29;20123;-84
2023/10/20 07:29:52;;;;;;;24.40;13.93;;;7.30;99.90;;;;;;4920907;29;20051;-83
2023/10/20 07:32:18;;;;;;;27.58;13.77;;;8.40;99.90;;;;;;4926699;29;20060;-85
2023/10/20 07:34:44;;;;;;;25.60;14.33;;;7.30;99.90;;;;;;4919127;29;20484;-84
2023/10/20 07:37:10;;;;;;;24.67;14.00;;;7.20;99.90;;;;;;4901891;29;20508;-85
2023/10/20 07:39:37;;;;;;;25.77;15.43;;;8.50;99.90;;;;;;4919061;29;20040;-81
2023/10/20 07:42:05;;;;;;;28.90;15.50;;;7.30;99.90;;;;;;4908955;29;20473;-83
2023/10/20 07:44:51;;;;;;;29.10;16.53;;;7.30;99.90;;;;;;4899404;29;20056;-81
2023/10/20 07:47:16;;;;;;;27.63;14.90;;;8.40;99.90;;;;;;4908433;29;20071;-82
2023/10/20 07:49:42;;;;;;;25.73;14.67;;;7.30;99.90;;;;;;4901088;29;20040;-86
2023/10/20 07:52:26;;;;;;;25.07;13.90;;;8.00;99.90;;;;;;4903646;29;20051;-87
2023/10/20 07:55:11;;;;;;;21.67;12.73;;;7.70;99.90;;;;;;4902312;29;20048;-87
2023/10/20 07:57:52;;;;;;;20.45;11.90;;;7.20;99.90;;;;;;4902423;29;20056;-88
2023/10/20 08:00:18;;;;;;;21.00;12.63;;;7.50;99.90;;;;;;4917995;29;20183;-88
2023/10/20 08:02:50;;;;;;;20.75;11.23;;;7.30;99.90;;;;;;4900367;29;20081;-83
2023/10/20 08:05:40;;;;;;;24.23;12.02;;;7.20;99.90;;;;;;4901073;29;20044;-85
2023/10/20 08:08:17;;;;;;;20.93;10.03;;;8.00;99.90;;;;;;4917890;29;20508;-85
2023/10/20 08:10:49;;;;;;;19.47;10.53;;;7.40;99.90;;;;;;4901331;29;20052;-85
2023/10/20 08:13:51;;;;;;;19.30;9.75;;;8.40;99.90;;;;;;4901775;29;20052;-85
2023/10/20 08:16:20;;;;;;;18.45;10.05;;;7.10;99.90;;;;;;4901535;29;20532;-84
2023/10/20 08:18:45;;;;;;;15.63;9.17;;;6.70;99.90;;;;;;4902046;29;20048;-84
2023/10/20 08:21:29;;;;;;;15.83;8.73;;;7.00;99.90;;;;;;4899895;29;20444;-85
2023/10/20 08:24:02;;;;;;;;;;;6.60;99.90;;;;;;4901478;29;20056;-84
2023/10/20 08:26:28;;;;;;;15.25;7.20;;;7.10;99.90;;;;;;4914872;29;19966;-84
2023/10/20 08:31:28;;;;;;;15.45;7.57;;;7.30;99.90;;;;;;4996979;24;20111;-85
2023/10/20 08:33:54;;;;;;;16.27;7.90;;;8.30;99.90;;;;;;4920589;29;20044;-83
2023/10/20 08:36:32;;;;;;;14.48;6.90;;;7.50;99.90;;;;;;4919823;29;20043;-84
2023/10/20 08:39:04;;;;;;;11.68;6.15;;;6.90;99.90;;;;;;4919962;29;20044;-84
2023/10/20 08:41:53;;;;;;;13.27;6.90;;;7.10;99.90;;;;;;4887052;29;20052;-84
2023/10/20 08:44:19;;;;;;;13.30;6.03;;;7.20;99.90;;;;;;4901407;29;20059;-83
2023/10/20 08:46:51;;;;;;;13.43;6.13;;;7.20;99.90;;;;;;4900917;29;20046;-84
2023/10/20 08:49:29;;;;;;;12.10;6.00;;;7.70;99.90;;;;;;4901157;29;20564;-85
2023/10/20 08:52:04;;;;;;;11.97;5.47;;;7.20;99.90;;;;;;4916244;29;20040;-84
2023/10/20 08:54:30;;;;;;;11.93;5.20;;;7.10;99.90;;;;;;4910793;29;20376;-83
2023/10/20 08:57:11;;;;;;;10.98;5.00;;;8.00;99.90;;;;;;4920904;29;20056;-85
2023/10/20 08:59:37;;;;;;;10.65;4.82;;;7.90;99.90;;;;;;4919070;29;20087;-86
2023/10/20 09:02:03;;;;;;;13.68;4.93;;;6.90;99.90;;;;;;4937292;29;20123;-84
2023/10/20 09:04:29;;;;;;;10.93;4.80;;;7.70;99.90;;;;;;4920520;29;20044;-84
2023/10/20 09:07:12;;;;;;;10.50;4.93;;;7.10;99.90;;;;;;4919578;29;20039;-83
2023/10/20 09:09:51;;;;;;;9.57;4.40;;;7.20;99.90;;;;;;4919996;29;20062;-84
2023/10/20 09:12:17;;;;;;;9.98;4.80;;;7.10;99.90;;;;;;4919839;29;20499;-84
2023/10/20 09:15:17;;;;;;;10.10;5.20;;;7.80;99.90;;;;;;4951117;29;20055;-83
2023/10/20 09:17:44;;;;;;;12.65;5.30;;;7.00;99.90;;;;;;4937153;29;20055;-84
2023/10/20 09:20:25;;;;;;;10.32;5.55;;;7.10;99.90;;;;;;4918215;29;20832;-84
2023/10/20 09:22:56;;;;;;;11.52;5.47;;;6.30;99.90;;;;;;4951367;29;20059;-84
2023/10/20 09:25:41;;;;;;;11.02;5.50;;;7.50;99.90;;;;;;4951263;29;20148;-85
2023/10/20 09:28:22;;;;;;;10.97;4.90;;;5.80;99.90;;;;;;4918921;29;20407;-85
2023/10/20 09:31:06;;;;;;;9.63;4.72;;;8.10;99.90;;;;;;4902725;29;20139;-83
2023/10/20 09:33:32;;;;;;;9.47;4.30;;;8.10;99.90;;;;;;4896612;29;20059;-85
2023/10/20 09:36:16;;;;;;;9.60;4.50;;;7.00;99.90;;;;;;4896633;29;20416;-81
2023/10/20 09:39:05;;;;;;;8.90;4.10;;;7.00;99.90;;;;;;4881701;29;20049;-83
2023/10/20 09:41:31;;;;;;;8.45;3.75;;;7.10;99.90;;;;;;4895926;29;20596;-84
2023/10/20 09:44:07;;;;;;;9.30;3.90;;;6.90;99.90;;;;;;4895901;29;20108;-83
2023/10/20 09:47:10;;;;;;;9.23;4.28;;;8.60;99.90;;;;;;4897170;29;20045;-83
2023/10/20 09:49:44;;;;;;;9.40;3.92;;;7.00;99.90;;;;;;4896172;29;20052;-83
2023/10/20 09:52:36;;;;;;;8.83;3.73;;;7.40;99.90;;;;;;4896629;29;20504;-84
2023/10/20 09:55:14;;;;;;;9.23;4.30;;;6.30;99.90;;;;;;4894497;29;20052;-83
2023/10/20 09:57:40;;;;;;;8.90;3.77;;;6.90;99.90;;;;;;4893785;29;20048;-84
2023/10/20 10:00:12;;;;;;;9.05;3.45;;;7.90;99.90;;;;;;4881332;29;20051;-83
2023/10/20 10:03:17;;;;;;;9.20;3.27;;;7.00;99.90;;;;;;4896257;29;20049;-83
2023/10/20 10:05:42;;;;;;;8.00;3.22;;;7.70;99.90;;;;;;4886318;29;20117;-83
2023/10/20 10:08:20;;;;;;;8.03;3.10;;;6.70;99.90;;;;;;4897720;29;20052;-83
2023/10/20 10:10:49;;;;;;;7.90;2.83;;;7.00;99.90;;;;;;4927456;29;20059;-85
2023/10/20 10:16:56;;;;;;;8.23;3.05;;;6.30;99.90;;;;;;4880012;29;20108;-83
2023/10/20 10:19:50;;;;;;;8.00;3.10;;;7.90;99.90;;;;;;4895849;29;20060;-83
2023/10/20 10:22:26;;;;;;;8.43;3.00;;;6.80;99.90;;;;;;4901173;29;20055;-83
2023/10/20 10:25:16;;;;;;;8.40;3.30;;;6.70;99.90;;;;;;4894811;29;20044;-85
2023/10/20 10:27:39;;;;;;;7.93;3.23;;;8.50;99.90;;;;;;4895976;29;20463;-84
2023/10/20 10:30:06;;;;;;;8.37;3.10;;;6.70;99.90;;;;;;4895293;29;20057;-83
2023/10/20 10:32:58;;;;;;;8.00;3.30;;;6.90;99.90;;;;;;4896032;29;20122;-83
2023/10/20 10:35:29;;;;;;;7.40;3.13;;;6.90;99.90;;;;;;4895573;29;20136;-83
2023/10/20 10:38:08;;;;;;;8.20;3.37;;;6.70;99.90;;;;;;4927460;29;20131;-84
2023/10/20 10:40:55;;;;;;;8.17;2.80;;;6.70;99.90;;;;;;4896017;29;20505;-85
2023/10/20 10:43:24;;;;;;;9.07;2.60;;;7.90;99.90;;;;;;4896298;29;20044;-83
2023/10/20 10:46:05;;;;;;;7.17;2.80;;;6.60;99.90;;;;;;4895490;29;20048;-85
2023/10/20 10:48:40;;;;;;;7.73;2.63;;;7.80;99.90;;;;;;4896021;29;20568;-83
2023/10/20 10:51:27;;;;;;;7.73;2.47;;;7.30;99.90;;;;;;4896089;29;20104;-83
2023/10/20 10:53:53;;;;;;;6.50;2.53;;;7.60;99.90;;;;;;4896393;29;20543;-84
2023/10/20 10:56:31;;;;;;;6.43;2.40;;;7.10;99.90;;;;;;4896613;29;20056;-84
2023/10/20 10:59:00;;;;;;;7.33;2.80;;;7.00;99.90;;;;;;4895539;29;20522;-82
2023/10/20 11:01:26;;;;;;;7.53;2.70;;;6.80;99.90;;;;;;4895713;29;20135;-81
2023/10/20 11:03:52;;;;;;;7.70;2.70;;;7.00;99.90;;;;;;4877516;29;20045;-83
2023/10/20 11:06:24;;;;;;;7.83;2.50;;;6.70;99.90;;;;;;4933630;29;20049;-83
2023/10/20 11:09:05;;;;;;;6.83;2.40;;;6.70;99.90;;;;;;4896085;29;20044;-84
2023/10/20 11:11:31;;;;;;;6.73;2.30;;;6.80;99.90;;;;;;4894085;29;20412;-83
2023/10/20 11:13:58;;;;;;;7.20;2.50;;;7.80;99.90;;;;;;4895124;29;20060;-84
2023/10/20 11:16:29;;;;;;;6.97;2.53;;;6.80;99.90;;;;;;4895440;29;20048;-84
2023/10/20 11:18:55;;;;;;;7.10;2.50;;;8.30;99.90;;;;;;4894167;29;20092;-83
2023/10/20 11:21:21;;;;;;;7.30;2.57;;;8.00;99.90;;;;;;4894705;29;20076;-84
2023/10/20 11:23:50;;;;;;;6.60;2.43;;;7.90;99.90;;;;;;4896969;29;20572;-84
2023/10/20 11:26:30;;;;;;;7.23;2.70;;;6.80;99.90;;;;;;4894808;29;20055;-87
2023/10/20 11:29:31;;;;;;;7.60;2.70;;;7.40;99.90;;;;;;4893365;29;20132;-87
2023/10/20 11:32:00;;;;;;;7.30;2.70;;;6.50;99.90;;;;;;4919462;29;20121;-85
2023/10/20 11:34:27;;;;;;;6.77;2.50;;;7.30;99.90;;;;;;4894577;29;20179;-86
2023/10/20 11:37:08;;;;;;;6.90;2.37;;;6.80;99.90;;;;;;4917249;24;20063;-85
2023/10/20 11:39:52;;;;;;;6.80;2.40;;;6.00;99.90;;;;;;4914272;29;20048;-84
2023/10/20 11:42:18;;;;;;;5.38;2.10;;;6.70;99.90;;;;;;4897974;29;20056;-85
2023/10/20 11:49:08;;;;;;;;;;;;;;;;;;;;;
2023/10/20 11:54:33;;;;;;;5.17;1.90;;;6.70;99.90;;;;;;5022761;23;20040;-87
2023/10/20 11:57:08;;;;;;;5.30;1.92;;;6.40;99.90;;;;;;4918661;29;20504;-92
2023/10/20 11:59:36;;;;;;;6.07;2.10;;;6.60;99.90;;;;;;4920886;29;20044;-86
2023/10/20 12:02:03;;;;;;;5.43;1.90;;;7.10;99.90;;;;;;4919991;29;20369;-87
2023/10/20 12:04:29;;;;;;;4.57;1.87;;;7.80;99.90;;;;;;4922548;29;20044;-88
2023/10/20 12:07:46;;;;;;;5.23;1.80;;;7.40;99.90;;;;;;4924199;23;20112;-87
2023/10/20 12:10:16;;;;;;;5.30;1.60;;;6.60;99.90;;;;;;4918564;29;20126;-88
2023/10/20 12:12:45;;;;;;;4.93;1.70;;;6.30;99.90;;;;;;4920500;29;20504;-87
2023/10/20 12:15:11;;;;;;;5.73;1.67;;;6.20;99.90;;;;;;4919572;29;20111;-85
2023/10/20 12:17:46;;;;;;;4.40;1.53;;;7.10;99.90;;;;;;4919895;29;20043;-86
2023/10/20 12:20:13;;;;;;;4.50;1.57;;;7.00;99.90;;;;;;4920375;29;20063;-86
2023/10/20 12:22:44;;;;;;;4.73;1.67;;;8.30;99.90;;;;;;4935667;29;20396;-85
2023/10/20 12:25:10;;;;;;;4.50;1.70;;;7.70;99.90;;;;;;4919933;29;20054;-85
2023/10/20 12:27:35;;;;;;;5.70;1.70;;;7.00;99.90;;;;;;4917514;29;20048;-84
2023/10/20 12:30:20;;;;;;;5.53;1.70;;;6.50;99.90;;;;;;4919578;29;20152;-85
2023/10/20 12:32:46;;;;;;;4.63;1.80;;;6.40;99.90;;;;;;4918212;29;20130;-85
2023/10/20 12:35:27;;;;;;;5.70;1.80;;;7.30;99.90;;;;;;4919847;29;20441;-85
2023/10/20 12:37:52;;;;;;;6.53;1.90;;;7.10;99.90;;;;;;4919333;29;20408;-85
2023/10/20 12:40:18;;;;;;;5.40;1.90;;;6.20;99.90;;;;;;4919731;29;20040;-86
2023/10/20 12:42:44;;;;;;;5.33;1.63;;;6.70;99.90;;;;;;4919997;29;20579;-85
2023/10/20 12:45:12;;;;;;;6.90;2.00;;;6.60;99.90;;;;;;4918927;29;20052;-86
2023/10/20 12:47:38;;;;;;;4.87;1.60;;;6.30;99.90;;;;;;4920107;29;20524;-85
2023/10/20 12:50:32;;;;;;;2.77;1.30;;;7.30;99.90;;;;;;4931690;29;20044;-85
2023/10/20 12:53:12;;;;;;;3.40;1.40;;;7.90;99.90;;;;;;4917082;29;20059;-86
2023/10/20 12:55:39;;;;;;;4.00;1.50;;;6.70;99.90;;;;;;4917528;29;20043;-86
2023/10/20 12:58:20;;;;;;;4.25;1.60;;;7.90;99.90;;;;;;4919268;29;20035;-87
2023/10/20 13:00:45;;;;;;;4.65;1.60;;;6.40;99.90;;;;;;4917268;29;20090;-85
2023/10/20 13:06:52;;;;;;;6.50;1.85;;;6.60;99.90;;;;;;4917262;29;20055;-84
2023/10/20 13:09:18;;;;;;;4.32;1.55;;;6.20;99.90;;;;;;4915978;29;20489;-85
2023/10/20 13:11:44;;;;;;;4.30;1.60;;;8.20;99.90;;;;;;4918856;29;20051;-84
2023/10/20 13:17:30;;;;;;;4.60;1.50;;;6.60;99.90;;;;;;4921466;23;20059;-84
2023/10/20 13:20:13;;;;;;;3.47;1.40;;;6.30;99.90;;;;;;4898666;29;20163;-84
2023/10/20 13:22:57;;;;;;;4.23;1.60;;;6.20;99.90;;;;;;4900709;29;20130;-85
2023/10/20 13:25:23;;;;;;;2.95;1.33;;;6.80;99.90;;;;;;4898284;29;20548;-83
2023/10/20 13:28:07;;;;;;;3.70;1.50;;;6.30;99.90;;;;;;4900245;29;20503;-84
2023/10/20 13:30:33;;;;;;;;;;;6.70;99.90;;;;;;4899973;29;20063;-84
2023/10/20 13:32:59;;;;;;;3.73;1.50;;;6.50;99.90;;;;;;4899863;29;19922;-84
2023/10/20 13:36:09;;;;;;;3.43;1.40;;;7.10;99.90;;;;;;4900043;29;20036;-84
2023/10/20 13:39:04;;;;;;;3.10;1.30;;;6.60;99.90;;;;;;4903603;29;20468;-84
2023/10/20 13:41:30;;;;;;;2.70;1.30;;;6.80;99.90;;;;;;4922206;29;20075;-85
2023/10/20 13:44:07;;;;;;;2.97;1.20;;;6.40;99.90;;;;;;4897749;29;20086;-85
2023/10/20 13:46:51;;;;;;;3.77;1.40;;;6.40;99.90;;;;;;4899033;29;20095;-86
2023/10/20 13:49:17;;;;;;;3.05;1.30;;;6.90;99.90;;;;;;4920518;29;20064;-85
2023/10/20 13:51:43;;;;;;;3.93;1.40;;;6.00;99.90;;;;;;4899773;29;20485;-85
2023/10/20 13:54:09;;;;;;;5.13;1.50;;;7.40;99.90;;;;;;4899361;29;20150;-86
2023/10/20 13:56:55;;;;;;;6.37;1.60;;;6.70;99.90;;;;;;4899824;29;20519;-85
2023/10/20 14:03:26;;;;;;;3.80;1.50;;;5.80;99.90;;;;;;4914277;29;20512;-85
2023/10/20 14:13:27;;;;;;;4.00;1.50;;;6.40;99.90;;;;;;4914077;29;20452;-85
2023/10/20 14:26:59;;;;;;;5.13;1.63;;;6.90;99.90;;;;;;5328608;23;20250;-85
2023/10/20 14:29:24;;;;;;;3.27;1.40;;;6.80;99.90;;;;;;4941504;29;20890;-84
2023/10/20 14:31:50;;;;;;;3.77;1.20;;;6.30;99.90;;;;;;4918572;29;20051;-82
2023/10/20 14:34:15;;;;;;;3.73;1.40;;;7.50;99.90;;;;;;4918209;29;20047;-82